Time;durP1;ratioP1;P1;durP2;ratioP2;P2;SDS_P1;SDS_P2;PMS_P1;PMS_P2;Temp;Humidity;BMP_temperature;BMP_pressure;BME280_temperature;BME280_humidity;BME280_pressure;Samples;Min_cycle;Max_cycle;Signal;HPM_P1;HPM_P2
2022/10/30 05:51:47;;;;;;;14.23;12.73;;;17.00;99.90;;;;;;4592013;19;20023;-27
2022/10/30 05:53:19;;;;;;;15.68;13.25;;;17.00;99.90;;;;;;4590337;19;20078;-26
2022/10/30 05:54:50;;;;;;;16.00;13.00;;;16.90;99.90;;;;;;4589672;19;20014;-26
2022/10/30 05:56:21;;;;;;;14.45;12.25;;;17.00;99.90;;;;;;4590171;19;20480;-25
2022/10/30 05:58:00;;;;;;;14.35;12.85;;;16.90;99.90;;;;;;4589804;19;20018;-26
2022/10/30 05:59:31;;;;;;;14.25;12.75;;;16.90;99.90;;;;;;4588869;19;20083;-27
2022/10/30 06:01:06;;;;;;;14.57;12.65;;;16.90;99.90;;;;;;4589774;19;20010;-25
2022/10/30 06:02:38;;;;;;;15.00;13.02;;;16.90;99.90;;;;;;4591723;19;20119;-27
2022/10/30 06:04:11;;;;;;;14.85;12.32;;;16.90;99.90;;;;;;4592148;19;20038;-25
2022/10/30 06:05:43;;;;;;;15.00;13.18;;;16.90;99.90;;;;;;4590030;19;20374;-27
2022/10/30 06:07:14;;;;;;;15.60;13.75;;;16.90;99.90;;;;;;4591355;19;20077;-26
2022/10/30 06:08:46;;;;;;;16.02;14.15;;;16.90;99.90;;;;;;4590640;19;20014;-28
2022/10/30 06:10:17;;;;;;;18.40;14.15;;;16.90;99.90;;;;;;4591013;19;20017;-27
2022/10/30 06:11:48;;;;;;;15.75;14.07;;;16.90;99.90;;;;;;4590990;19;20007;-26
2022/10/30 06:13:20;;;;;;;;;;;16.90;99.90;;;;;;4591435;19;20014;-27
2022/10/30 06:14:51;;;;;;;17.15;14.25;;;16.90;99.90;;;;;;4593091;19;19919;-27
2022/10/30 06:16:22;;;;;;;16.45;14.45;;;16.90;99.90;;;;;;4594047;19;20014;-27
2022/10/30 06:17:55;;;;;;;16.58;14.43;;;16.90;99.90;;;;;;4591693;19;20017;-26
2022/10/30 06:19:27;;;;;;;15.15;13.38;;;16.90;99.90;;;;;;4591060;19;20065;-27
2022/10/30 06:20:58;;;;;;;15.50;13.68;;;16.90;99.90;;;;;;4591527;19;20528;-26
2022/10/30 06:22:30;;;;;;;15.77;13.07;;;16.80;99.90;;;;;;4592662;19;20117;-27
2022/10/30 06:24:01;;;;;;;15.95;13.80;;;16.90;99.90;;;;;;4593677;19;20073;-27
2022/10/30 06:25:34;;;;;;;15.65;13.82;;;16.80;99.90;;;;;;4590419;19;20052;-27
2022/10/30 06:27:07;;;;;;;16.80;14.25;;;16.80;99.90;;;;;;4590869;19;20344;-28
2022/10/30 06:28:38;;;;;;;15.32;13.65;;;16.90;99.90;;;;;;4587211;19;20309;-27
2022/10/30 06:30:10;;;;;;;16.63;14.07;;;16.80;99.90;;;;;;4589915;19;20021;-28
2022/10/30 06:31:42;;;;;;;17.80;15.00;;;16.90;99.90;;;;;;4589946;19;20010;-28
2022/10/30 06:33:13;;;;;;;15.07;13.48;;;16.90;99.90;;;;;;4590570;19;20329;-27
2022/10/30 06:34:44;;;;;;;17.33;13.43;;;17.00;99.90;;;;;;4589950;19;20006;-27
2022/10/30 06:36:16;;;;;;;16.98;12.60;;;17.00;99.90;;;;;;4589407;19;20476;-28
2022/10/30 06:37:47;;;;;;;14.95;12.15;;;17.00;99.90;;;;;;4589157;19;20349;-26
2022/10/30 06:39:18;;;;;;;16.65;13.60;;;17.10;99.90;;;;;;4590361;19;20023;-27
2022/10/30 06:40:50;;;;;;;;;;;17.10;99.90;;;;;;4591554;19;20035;-27
2022/10/30 06:42:22;;;;;;;16.92;13.88;;;17.20;99.90;;;;;;4592452;19;19943;-27
2022/10/30 06:43:57;;;;;;;15.95;14.15;;;17.30;99.90;;;;;;4591265;19;20363;-27
2022/10/30 06:45:28;;;;;;;16.50;14.82;;;17.40;99.90;;;;;;4591965;19;20215;-25
2022/10/30 06:46:59;;;;;;;;;;;17.40;99.90;;;;;;4591944;19;20007;-26
2022/10/30 06:48:31;;;;;;;16.63;13.35;;;17.40;99.90;;;;;;4588859;19;19922;-26
2022/10/30 06:50:04;;;;;;;17.55;14.25;;;17.50;99.90;;;;;;4588243;19;20039;-26
2022/10/30 06:51:35;;;;;;;15.75;13.38;;;17.50;99.90;;;;;;4587994;19;20361;-26
2022/10/30 06:58:24;;;;;;;18.00;16.20;;;17.60;99.90;;;;;;4587842;19;19998;-26
2022/10/30 06:59:56;;;;;;;19.67;17.63;;;16.10;99.90;;;;;;4589357;19;20435;-27
2022/10/30 07:01:28;;;;;;;22.65;17.88;;;15.40;99.90;;;;;;4587966;19;20039;-27
2022/10/30 07:03:00;;;;;;;20.85;18.67;;;15.10;99.90;;;;;;4587555;19;20107;-27
2022/10/30 07:04:33;;;;;;;21.73;19.52;;;14.90;99.90;;;;;;4588067;19;20015;-26
2022/10/30 07:06:05;;;;;;;;;;;14.90;99.90;;;;;;4589337;19;20101;-27
2022/10/30 07:07:38;;;;;;;20.55;17.83;;;14.90;99.90;;;;;;4588157;19;19930;-26
2022/10/30 07:09:09;;;;;;;19.60;17.60;;;14.90;99.90;;;;;;4587856;19;20047;-27
2022/10/30 07:10:40;;;;;;;22.45;19.80;;;14.90;99.90;;;;;;4588240;19;20017;-27
2022/10/30 07:12:13;;;;;;;21.45;19.35;;;14.90;99.90;;;;;;4587782;19;20365;-26
2022/10/30 07:13:44;;;;;;;21.67;19.50;;;14.90;99.90;;;;;;4587691;19;19998;-27
2022/10/30 07:15:15;;;;;;;21.63;19.42;;;14.90;99.90;;;;;;4587678;19;20342;-26
2022/10/30 07:16:46;;;;;;;23.65;21.23;;;14.90;99.90;;;;;;4588281;19;20014;-26
2022/10/30 07:18:18;;;;;;;20.95;18.92;;;14.90;99.90;;;;;;4588470;19;20014;-26
2022/10/30 07:19:50;;;;;;;;;;;14.90;99.90;;;;;;4588698;19;20021;-26
2022/10/30 07:21:22;;;;;;;17.95;16.05;;;14.90;99.90;;;;;;4588342;19;20399;-27
2022/10/30 07:22:53;;;;;;;17.65;15.80;;;14.90;99.90;;;;;;4588339;19;20469;-26
2022/10/30 07:24:25;;;;;;;17.65;15.75;;;14.90;99.90;;;;;;4589122;19;20011;-27
2022/10/30 07:25:58;;;;;;;18.08;15.50;;;14.90;99.90;;;;;;4589324;19;20026;-27
2022/10/30 07:27:29;;;;;;;19.02;16.98;;;14.90;99.90;;;;;;4588950;19;20443;-27
2022/10/30 07:29:01;;;;;;;19.67;16.90;;;14.90;99.90;;;;;;4588649;19;20092;-28
2022/10/30 07:30:34;;;;;;;18.77;16.77;;;15.00;99.90;;;;;;4589055;19;20010;-27
2022/10/30 07:32:06;;;;;;;20.85;17.15;;;14.90;99.90;;;;;;4588986;19;20062;-27
2022/10/30 07:33:37;;;;;;;19.40;17.27;;;14.90;99.90;;;;;;4588511;19;20015;-27
2022/10/30 07:35:09;;;;;;;19.83;17.45;;;15.00;99.90;;;;;;4589021;19;20074;-27
2022/10/30 07:36:40;;;;;;;18.65;16.83;;;15.00;99.90;;;;;;4589273;19;20018;-27
2022/10/30 07:38:11;;;;;;;19.35;16.25;;;14.90;99.90;;;;;;4588496;19;20018;-27
2022/10/30 07:39:44;;;;;;;19.80;17.15;;;14.90;99.90;;;;;;4588364;19;20444;-27
2022/10/30 07:41:18;;;;;;;18.98;15.60;;;15.00;99.90;;;;;;4589377;19;20489;-27
2022/10/30 07:42:54;;;;;;;19.33;16.67;;;14.90;99.90;;;;;;4591143;19;20014;-27
2022/10/30 07:44:25;;;;;;;16.77;14.23;;;15.00;99.90;;;;;;4593632;19;20021;-27
2022/10/30 07:45:56;;;;;;;;;;;15.00;99.90;;;;;;4594585;19;20084;-27
2022/10/30 07:47:28;;;;;;;16.13;13.90;;;15.00;99.90;;;;;;4592548;19;19914;-28
2022/10/30 07:49:00;;;;;;;16.35;14.23;;;15.00;99.90;;;;;;4592318;19;20049;-27
2022/10/30 07:50:32;;;;;;;16.65;13.80;;;15.00;99.90;;;;;;4593126;19;20524;-27
2022/10/30 07:52:03;;;;;;;16.13;13.02;;;15.00;99.90;;;;;;4595084;19;20010;-26
2022/10/30 07:53:36;;;;;;;14.48;12.90;;;15.00;99.90;;;;;;4596460;19;20479;-27
2022/10/30 07:55:08;;;;;;;16.05;13.25;;;15.00;99.90;;;;;;4593178;19;20038;-27
2022/10/30 07:56:39;;;;;;;17.45;14.18;;;15.00;99.90;;;;;;4593618;19;20044;-27
2022/10/30 07:58:12;;;;;;;16.63;13.60;;;15.00;99.90;;;;;;4593950;19;20338;-26
2022/10/30 08:03:16;;;;;;;17.83;13.18;;;15.10;99.90;;;;;;4595597;19;20349;-27
2022/10/30 08:04:48;;;;;;;18.05;12.32;;;15.10;99.90;;;;;;4595404;19;20507;-26
2022/10/30 08:06:18;;;;;;;15.60;12.00;;;15.10;99.90;;;;;;4597046;19;20022;-26
2022/10/30 08:07:49;;;;;;;15.10;11.55;;;15.10;99.90;;;;;;4592819;19;20019;-28
2022/10/30 08:09:21;;;;;;;14.93;11.45;;;15.10;99.90;;;;;;4593737;19;20007;-27
2022/10/30 08:10:52;;;;;;;15.88;12.15;;;15.20;99.90;;;;;;4593526;19;20404;-27
2022/10/30 08:12:24;;;;;;;14.75;12.27;;;15.20;99.90;;;;;;4594600;19;20010;-27
2022/10/30 08:13:58;;;;;;;12.63;10.10;;;15.20;99.90;;;;;;4594932;19;20018;-27
2022/10/30 08:15:31;;;;;;;10.77;9.32;;;15.20;99.90;;;;;;4595163;19;20017;-27
2022/10/30 08:17:04;;;;;;;14.32;9.68;;;15.20;99.90;;;;;;4595759;19;20023;-27
2022/10/30 08:18:35;;;;;;;10.90;8.50;;;15.20;99.90;;;;;;4596035;19;20014;-27
2022/10/30 08:20:07;;;;;;;;;;;15.30;99.90;;;;;;4595617;19;20498;-27
2022/10/30 08:21:38;;;;;;;10.60;8.52;;;15.30;99.90;;;;;;4595337;19;19926;-28
2022/10/30 08:23:09;;;;;;;11.10;9.18;;;15.30;99.90;;;;;;4595082;19;20487;-28
2022/10/30 08:24:41;;;;;;;11.25;7.82;;;15.30;99.90;;;;;;4595998;19;20021;-27
2022/10/30 08:26:13;;;;;;;10.00;8.55;;;15.30;99.90;;;;;;4595582;19;20011;-26
2022/10/30 08:27:52;;;;;;;10.93;8.55;;;15.30;99.90;;;;;;4595626;19;20070;-27
2022/10/30 08:29:25;;;;;;;10.48;8.70;;;15.30;99.90;;;;;;4595307;19;20035;-28
2022/10/30 08:30:57;;;;;;;9.23;7.90;;;15.30;99.90;;;;;;4594475;19;20011;-26
2022/10/30 08:32:28;;;;;;;9.98;7.93;;;15.30;99.90;;;;;;4595247;19;20034;-26
2022/10/30 08:34:01;;;;;;;8.68;6.93;;;15.30;99.90;;;;;;4593996;19;20084;-27
2022/10/30 08:35:32;;;;;;;;;;;15.30;99.90;;;;;;4595116;19;20019;-27
2022/10/30 08:37:03;;;;;;;8.43;6.53;;;15.30;99.90;;;;;;4594779;19;19922;-27
2022/10/30 08:38:35;;;;;;;9.15;6.53;;;15.30;99.90;;;;;;4594259;19;20007;-26
2022/10/30 08:40:07;;;;;;;9.43;7.15;;;15.40;99.90;;;;;;4594807;19;20010;-27
2022/10/30 08:41:39;;;;;;;8.63;7.22;;;15.40;99.90;;;;;;4595352;19;20014;-27
2022/10/30 08:43:11;;;;;;;8.77;6.82;;;15.40;99.90;;;;;;4594508;19;20021;-27
2022/10/30 08:44:43;;;;;;;7.80;6.57;;;15.40;99.90;;;;;;4593752;19;20027;-26
2022/10/30 08:46:17;;;;;;;7.85;6.05;;;15.40;99.90;;;;;;4594643;19;20010;-28
2022/10/30 08:47:59;;;;;;;6.88;5.50;;;15.40;99.90;;;;;;4595117;19;20014;-26
2022/10/30 08:49:33;;;;;;;7.85;5.75;;;15.50;99.90;;;;;;4594948;19;20011;-26
2022/10/30 08:51:06;;;;;;;7.18;5.85;;;15.50;99.90;;;;;;4593333;19;20014;-27
2022/10/30 08:52:40;;;;;;;8.00;5.97;;;15.50;99.90;;;;;;4592478;19;20018;-26
2022/10/30 08:54:11;;;;;;;7.22;5.43;;;15.50;99.90;;;;;;4590463;19;20010;-27
2022/10/30 08:55:42;;;;;;;6.35;5.00;;;15.50;99.90;;;;;;4591787;19;20010;-27
2022/10/30 08:57:13;;;;;;;6.35;4.72;;;15.60;99.90;;;;;;4592878;19;20018;-27
2022/10/30 08:58:46;;;;;;;7.65;5.15;;;15.80;99.90;;;;;;4593423;19;21197;-27
2022/10/30 09:00:18;;;;;;;7.68;4.22;;;15.90;99.90;;;;;;4590870;19;20014;-27
2022/10/30 09:02:07;;;;;;;8.77;4.95;;;16.00;99.90;;;;;;4592163;19;20011;-27
2022/10/30 09:07:11;;;;;;;6.32;5.47;;;15.50;99.90;;;;;;4593090;19;19998;-27
2022/10/30 09:08:42;;;;;;;7.47;5.40;;;15.50;99.90;;;;;;4594695;19;20014;-27
2022/10/30 09:10:13;;;;;;;7.90;6.15;;;15.50;99.90;;;;;;4592890;19;20469;-27
2022/10/30 09:11:47;;;;;;;8.15;5.75;;;15.50;99.90;;;;;;4591313;19;20010;-26
2022/10/30 09:13:19;;;;;;;8.27;6.05;;;15.50;99.90;;;;;;4590054;19;20453;-26
2022/10/30 09:14:50;;;;;;;9.98;6.35;;;15.50;99.90;;;;;;4594726;19;20014;-27
2022/10/30 09:16:21;;;;;;;7.85;6.10;;;15.50;99.90;;;;;;4592635;19;20011;-26
2022/10/30 09:17:57;;;;;;;6.93;5.40;;;15.50;99.90;;;;;;4591060;19;20024;-29
2022/10/30 09:19:28;;;;;;;6.40;4.75;;;15.50;99.90;;;;;;4592487;19;20022;-27
2022/10/30 09:21:00;;;;;;;7.22;5.53;;;15.50;99.90;;;;;;4591370;19;20361;-27
2022/10/30 09:22:32;;;;;;;6.68;5.10;;;15.50;99.90;;;;;;4590518;19;20010;-28
2022/10/30 09:24:03;;;;;;;6.40;5.07;;;15.50;99.90;;;;;;4588151;19;20011;-27
2022/10/30 09:25:35;;;;;;;6.50;4.68;;;15.50;99.90;;;;;;4591845;19;20466;-27
2022/10/30 09:27:07;;;;;;;8.25;5.53;;;15.50;99.90;;;;;;4592278;19;20014;-27
2022/10/30 09:28:39;;;;;;;8.13;5.70;;;15.50;99.90;;;;;;4591679;19;20481;-27
2022/10/30 09:30:12;;;;;;;6.93;5.53;;;15.50;99.90;;;;;;4592007;19;20014;-27
2022/10/30 09:31:43;;;;;;;7.25;5.55;;;15.50;99.90;;;;;;4594401;19;20070;-27
2022/10/30 09:33:14;;;;;;;6.82;5.30;;;15.50;99.90;;;;;;4592279;19;20030;-28
2022/10/30 09:34:45;;;;;;;10.00;6.10;;;15.60;99.90;;;;;;4593240;19;20014;-27
2022/10/30 09:36:17;;;;;;;6.63;5.18;;;15.60;99.90;;;;;;4591538;19;20015;-27
2022/10/30 09:37:48;;;;;;;7.85;6.20;;;15.50;99.90;;;;;;4592517;19;20006;-27
2022/10/30 09:39:20;;;;;;;8.23;6.82;;;15.60;99.90;;;;;;4590837;19;20010;-27
2022/10/30 09:41:02;;;;;;;11.35;7.40;;;15.60;99.90;;;;;;4591119;19;20011;-27
2022/10/30 09:42:40;;;;;;;7.47;6.47;;;15.60;99.90;;;;;;4591551;19;20017;-27
2022/10/30 09:44:28;;;;;;;7.25;5.57;;;15.60;99.90;;;;;;4591128;19;20007;-26
2022/10/30 09:46:30;;;;;;;7.13;6.15;;;15.60;99.90;;;;;;4591864;19;20014;-27
2022/10/30 09:48:23;;;;;;;10.45;8.10;;;15.60;99.90;;;;;;4591311;19;20003;-26
2022/10/30 09:50:04;;;;;;;13.55;10.23;;;15.60;99.90;;;;;;4594180;19;20089;-26
2022/10/30 09:51:44;;;;;;;12.10;9.23;;;15.60;99.90;;;;;;4590863;19;20014;-27
2022/10/30 09:53:32;;;;;;;11.35;9.32;;;15.60;99.90;;;;;;4593238;19;20007;-27
2022/10/30 09:55:33;;;;;;;8.93;7.15;;;15.60;99.90;;;;;;4590876;19;20081;-27
2022/10/30 09:57:25;;;;;;;8.10;5.85;;;15.60;99.90;;;;;;4592592;19;20019;-27
2022/10/30 09:59:14;;;;;;;9.90;6.07;;;15.70;99.90;;;;;;4590365;19;20023;-27
2022/10/30 10:00:49;;;;;;;6.72;4.93;;;15.70;99.90;;;;;;4592014;19;20041;-27
2022/10/30 10:02:23;;;;;;;5.95;4.75;;;15.70;99.90;;;;;;4590614;19;20010;-26
2022/10/30 10:04:03;;;;;;;5.28;4.20;;;15.70;99.90;;;;;;4590259;19;20034;-27
2022/10/30 10:05:57;;;;;;;5.72;4.15;;;15.70;99.90;;;;;;4589602;19;20367;-27
2022/10/30 10:11:19;;;;;;;4.18;3.47;;;15.70;99.90;;;;;;4591757;19;20007;-26
2022/10/30 10:12:51;;;;;;;4.10;3.05;;;15.70;99.90;;;;;;4590511;19;20047;-26
2022/10/30 10:14:27;;;;;;;3.97;2.67;;;15.70;99.90;;;;;;4590096;19;20018;-27
2022/10/30 10:16:13;;;;;;;4.40;3.10;;;15.70;99.90;;;;;;4590441;19;20018;-26
2022/10/30 10:17:45;;;;;;;5.05;3.92;;;15.70;99.90;;;;;;4590542;19;20013;-27
2022/10/30 10:19:32;;;;;;;5.82;4.20;;;15.70;99.90;;;;;;4590256;19;20031;-27
2022/10/30 10:21:08;;;;;;;6.07;4.20;;;15.70;99.90;;;;;;4590073;19;20006;-26
2022/10/30 10:22:48;;;;;;;7.43;5.50;;;15.70;99.90;;;;;;4590063;19;20030;-26
2022/10/30 10:24:25;;;;;;;5.25;4.03;;;15.70;99.90;;;;;;4591283;19;20014;-26
2022/10/30 10:25:58;;;;;;;5.80;4.97;;;15.70;99.90;;;;;;4590963;19;20456;-26
2022/10/30 10:28:00;;;;;;;5.85;4.75;;;15.70;99.90;;;;;;4590092;19;20018;-26
2022/10/30 10:29:51;;;;;;;6.03;3.90;;;15.70;99.90;;;;;;4591194;19;20018;-26
2022/10/30 10:32:00;;;;;;;5.35;3.33;;;15.70;99.90;;;;;;4591190;19;20010;-27
2022/10/30 10:33:32;;;;;;;4.15;3.05;;;15.70;99.90;;;;;;4591138;19;20013;-27
2022/10/30 10:35:32;;;;;;;4.82;3.13;;;15.70;99.90;;;;;;4591045;19;20014;-27
2022/10/30 10:37:16;;;;;;;4.05;2.80;;;15.70;99.90;;;;;;4590760;19;20353;-26
2022/10/30 10:38:53;;;;;;;4.28;2.75;;;15.70;99.90;;;;;;4590015;19;20031;-27
2022/10/30 10:40:34;;;;;;;3.90;2.40;;;15.80;99.90;;;;;;4591156;19;20015;-27
2022/10/30 10:42:18;;;;;;;4.85;3.60;;;15.70;99.90;;;;;;4590689;19;19999;-27
2022/10/30 10:43:58;;;;;;;4.53;3.53;;;15.80;99.90;;;;;;4589788;19;20074;-27
2022/10/30 10:46:00;;;;;;;6.03;3.35;;;15.70;99.90;;;;;;4591114;19;20338;-27
2022/10/30 10:47:47;;;;;;;6.03;2.90;;;15.80;99.90;;;;;;4589704;19;20025;-27
2022/10/30 11:47:00;;;;;;;11.52;6.20;;;16.10;99.90;;;;;;4591464;19;20003;-27
2022/10/30 11:48:32;;;;;;;8.20;5.40;;;16.10;99.90;;;;;;4587664;19;20476;-26
2022/10/30 11:50:14;;;;;;;11.82;7.55;;;16.10;99.90;;;;;;4588424;19;20050;-26
2022/10/30 11:51:46;;;;;;;;;;;16.10;99.90;;;;;;4589682;19;20039;-28
2022/10/30 11:53:23;;;;;;;7.60;5.13;;;16.20;99.90;;;;;;4589238;19;20241;-26
2022/10/30 11:55:00;;;;;;;8.30;5.38;;;16.10;99.90;;;;;;4588168;19;20015;-27
2022/10/30 11:56:32;;;;;;;7.93;5.28;;;16.10;99.90;;;;;;4586565;19;20492;-27
2022/10/30 11:58:05;;;;;;;7.55;5.75;;;16.10;99.90;;;;;;4587144;19;20460;-27
2022/10/30 11:59:37;;;;;;;8.10;5.80;;;16.20;99.90;;;;;;4587216;19;20002;-28
2022/10/30 12:01:29;;;;;;;7.63;5.63;;;16.20;99.90;;;;;;4587041;19;20040;-27
2022/10/30 12:03:02;;;;;;;;;;;16.20;99.90;;;;;;4587989;19;20477;-28
2022/10/30 12:04:33;;;;;;;7.55;5.82;;;16.20;99.90;;;;;;4587645;19;19918;-27
2022/10/30 12:06:15;;;;;;;8.10;6.50;;;16.20;99.90;;;;;;4587713;19;20010;-28
2022/10/30 12:07:48;;;;;;;9.50;7.03;;;16.10;99.90;;;;;;4588028;19;20008;-27
2022/10/30 12:09:22;;;;;;;10.80;6.38;;;16.20;99.90;;;;;;4587090;19;20090;-27
2022/10/30 12:10:56;;;;;;;10.85;7.38;;;16.20;99.90;;;;;;4587364;19;20341;-28
2022/10/30 12:12:37;;;;;;;9.18;6.93;;;16.20;99.90;;;;;;4587263;19;20002;-27
2022/10/30 12:14:22;;;;;;;11.20;6.75;;;16.10;99.90;;;;;;4587585;19;20010;-27
2022/10/30 12:16:30;;;;;;;12.00;7.78;;;16.20;99.90;;;;;;4587235;19;20003;-27
2022/10/30 12:18:02;;;;;;;11.50;8.18;;;16.20;99.90;;;;;;4586564;19;20039;-28
2022/10/30 12:19:35;;;;;;;8.32;6.97;;;16.20;99.90;;;;;;4587389;19;20116;-27
2022/10/30 12:21:07;;;;;;;9.88;7.45;;;16.20;99.90;;;;;;4586240;19;20040;-27
2022/10/30 12:22:40;;;;;;;8.00;6.38;;;16.20;99.90;;;;;;4586963;19;20014;-27
2022/10/30 12:24:31;;;;;;;8.15;6.30;;;16.20;99.90;;;;;;4585322;19;20033;-27
2022/10/30 12:26:10;;;;;;;9.27;6.97;;;16.30;99.90;;;;;;4586585;19;20018;-27
2022/10/30 12:27:41;;;;;;;15.20;11.30;;;16.20;99.90;;;;;;4587075;19;20126;-28
2022/10/30 12:29:15;;;;;;;15.50;10.82;;;16.30;99.90;;;;;;4589268;19;20006;-28
2022/10/30 12:31:01;;;;;;;10.27;7.53;;;16.20;99.90;;;;;;4591561;19;20014;-27
2022/10/30 12:32:37;;;;;;;9.30;6.85;;;16.30;99.90;;;;;;4592216;19;20016;-27
2022/10/30 12:34:17;;;;;;;9.18;7.13;;;16.30;99.90;;;;;;4593505;19;20010;-27
2022/10/30 12:35:55;;;;;;;8.07;6.72;;;16.30;99.90;;;;;;4593007;19;20048;-27
2022/10/30 12:37:36;;;;;;;6.95;5.38;;;16.30;99.90;;;;;;4592962;19;20014;-28
2022/10/30 12:39:18;;;;;;;7.75;6.03;;;16.30;99.90;;;;;;4593438;19;20018;-28
2022/10/30 12:40:58;;;;;;;8.25;6.20;;;16.30;99.90;;;;;;4593238;19;20007;-27
2022/10/30 12:42:33;;;;;;;9.85;6.88;;;16.30;99.90;;;;;;4593293;19;20011;-27
2022/10/30 12:44:09;;;;;;;7.35;5.88;;;16.30;99.90;;;;;;4589506;19;20022;-28
2022/10/30 12:45:43;;;;;;;6.68;5.60;;;16.20;99.90;;;;;;4591230;19;20464;-28
2022/10/30 12:49:37;;;;;;;8.10;6.18;;;16.30;99.90;;;;;;4591469;19;20010;-27
2022/10/30 12:51:13;;;;;;;8.82;6.65;;;16.30;99.90;;;;;;4592818;19;20046;-27
2022/10/30 12:53:08;;;;;;;10.43;6.13;;;16.30;99.90;;;;;;4593183;19;20018;-28
2022/10/30 12:54:48;;;;;;;9.07;6.93;;;16.30;99.90;;;;;;4590948;19;20519;-27
2022/10/30 12:56:23;;;;;;;8.75;5.78;;;16.30;99.90;;;;;;4590757;19;20367;-28
2022/10/30 12:58:03;;;;;;;7.20;5.95;;;16.30;99.90;;;;;;4591250;19;20018;-28
2022/10/30 12:59:43;;;;;;;8.43;6.57;;;16.30;99.90;;;;;;4590784;19;20472;-27
2022/10/30 13:01:34;;;;;;;7.95;6.15;;;16.30;99.90;;;;;;4590941;19;20021;-27
2022/10/30 13:03:19;;;;;;;7.38;5.90;;;16.30;99.90;;;;;;4590242;19;20049;-27
2022/10/30 13:04:54;;;;;;;7.82;6.57;;;16.30;99.90;;;;;;4590986;19;20362;-28
2022/10/30 13:06:27;;;;;;;9.45;7.00;;;16.30;99.90;;;;;;4590434;19;20054;-27
2022/10/30 13:08:29;;;;;;;9.10;6.50;;;16.30;99.90;;;;;;4590469;19;20055;-26
2022/10/30 13:10:07;;;;;;;8.55;6.68;;;16.30;99.90;;;;;;4590563;19;20022;-27
2022/10/30 13:12:18;;;;;;;7.65;6.47;;;16.40;99.90;;;;;;4590549;19;20054;-27
2022/10/30 13:13:51;;;;;;;9.77;7.95;;;16.40;99.90;;;;;;4590672;19;20414;-27
2022/10/30 13:15:32;;;;;;;9.55;8.20;;;16.30;99.90;;;;;;4590185;19;20017;-27
2022/10/30 13:17:04;;;;;;;10.60;8.02;;;16.40;99.90;;;;;;4591819;19;20010;-27
2022/10/30 13:18:37;;;;;;;10.48;7.68;;;16.40;99.90;;;;;;4590455;19;20021;-27
2022/10/30 13:20:13;;;;;;;8.30;7.35;;;16.40;99.90;;;;;;4591972;19;20531;-27
2022/10/30 13:21:53;;;;;;;9.52;7.47;;;16.40;99.90;;;;;;4592529;19;20010;-27
2022/10/30 13:23:30;;;;;;;10.10;8.00;;;16.40;99.90;;;;;;4591776;19;20011;-27
2022/10/30 13:25:13;;;;;;;9.90;8.38;;;16.40;99.90;;;;;;4592846;19;20077;-27
2022/10/30 13:27:06;;;;;;;10.20;8.85;;;16.40;99.90;;;;;;4590947;19;20035;-27
2022/10/30 13:29:17;;;;;;;9.85;8.05;;;16.30;99.90;;;;;;4590487;19;20006;-27
2022/10/30 13:31:16;;;;;;;9.27;8.13;;;16.30;99.90;;;;;;4592326;19;20064;-27
2022/10/30 13:33:08;;;;;;;13.07;8.68;;;16.30;99.90;;;;;;4589827;19;20010;-27
2022/10/30 13:34:47;;;;;;;11.77;9.23;;;16.30;99.90;;;;;;4589956;19;20015;-27
2022/10/30 13:36:41;;;;;;;11.23;8.48;;;16.30;99.90;;;;;;4589979;19;20018;-27
2022/10/30 13:38:39;;;;;;;9.50;7.20;;;16.30;99.90;;;;;;4589817;19;20007;-27
2022/10/30 13:40:18;;;;;;;9.85;7.40;;;16.30;99.90;;;;;;4588112;19;20391;-27
2022/10/30 13:42:15;;;;;;;9.98;7.65;;;16.30;99.90;;;;;;4590425;19;20014;-27
2022/10/30 13:44:15;;;;;;;10.05;7.40;;;16.30;99.90;;;;;;4589947;19;20003;-27
2022/10/30 13:46:23;;;;;;;11.15;7.65;;;16.30;99.90;;;;;;4591138;19;20078;-26
2022/10/30 13:47:58;;;;;;;13.15;10.20;;;16.30;99.90;;;;;;4589754;19;20024;-27
2022/10/30 13:53:02;;;;;;;10.85;8.30;;;16.30;99.90;;;;;;4590672;19;20013;-27
2022/10/30 13:54:39;;;;;;;11.27;8.23;;;16.20;99.90;;;;;;4592221;19;20023;-27
2022/10/30 13:56:14;;;;;;;11.93;8.43;;;16.30;99.90;;;;;;4589819;19;20517;-27
2022/10/30 13:57:50;;;;;;;10.32;8.32;;;16.20;99.90;;;;;;4589353;19;20010;-27
2022/10/30 13:59:24;;;;;;;9.80;7.90;;;16.20;99.90;;;;;;4589660;19;20015;-27
2022/10/30 14:01:20;;;;;;;11.05;8.02;;;16.20;99.90;;;;;;4588678;19;20536;-27
2022/10/30 14:03:10;;;;;;;10.40;8.73;;;16.20;99.90;;;;;;4589474;19;20005;-27
2022/10/30 14:04:54;;;;;;;13.90;10.98;;;16.30;99.90;;;;;;4589862;19;20037;-27
2022/10/30 14:06:52;;;;;;;12.07;9.73;;;16.20;99.90;;;;;;4589860;19;20504;-27
2022/10/30 14:08:40;;;;;;;12.45;9.05;;;16.20;99.90;;;;;;4590586;19;20007;-27
2022/10/30 14:10:27;;;;;;;11.55;8.60;;;16.20;99.90;;;;;;4589264;19;20033;-27
2022/10/30 14:12:19;;;;;;;11.57;8.95;;;16.20;99.90;;;;;;4588984;19;20098;-27
2022/10/30 14:14:22;;;;;;;10.40;7.88;;;16.20;99.90;;;;;;4588955;19;20473;-26
2022/10/30 14:15:58;;;;;;;11.77;8.63;;;16.20;99.90;;;;;;4588955;19;20094;-28
2022/10/30 14:17:30;;;;;;;11.80;9.30;;;16.20;99.90;;;;;;4588848;19;20016;-27
2022/10/30 14:19:06;;;;;;;10.43;8.85;;;16.20;99.90;;;;;;4590223;19;20018;-27
2022/10/30 14:20:46;;;;;;;11.20;8.70;;;16.20;99.90;;;;;;4590280;19;20349;-28
2022/10/30 14:22:23;;;;;;;13.18;9.90;;;16.20;99.90;;;;;;4590900;19;20107;-27
2022/10/30 14:24:02;;;;;;;11.18;9.45;;;16.20;99.90;;;;;;4587607;19;20014;-27
2022/10/30 14:25:33;;;;;;;13.90;10.55;;;16.20;99.90;;;;;;4589786;19;20036;-28
2022/10/30 14:27:04;;;;;;;11.70;10.27;;;16.20;99.90;;;;;;4589229;19;20007;-27
2022/10/30 14:28:36;;;;;;;13.20;10.02;;;16.20;99.90;;;;;;4588848;19;20630;-27
2022/10/30 14:30:18;;;;;;;15.15;10.38;;;16.20;99.90;;;;;;4588485;19;20393;-27
2022/10/30 14:31:50;;;;;;;11.32;9.38;;;16.20;99.90;;;;;;4588626;19;20018;-28
2022/10/30 14:33:47;;;;;;;12.40;10.68;;;16.20;99.90;;;;;;4587511;19;20027;-28
2022/10/30 14:35:35;;;;;;;13.88;11.45;;;16.20;99.90;;;;;;4587572;19;20014;-28
2022/10/30 14:37:06;;;;;;;13.43;11.20;;;16.20;99.90;;;;;;4587653;19;22124;-28
2022/10/30 14:38:38;;;;;;;14.85;12.65;;;16.20;99.90;;;;;;4587279;19;20092;-27
2022/10/30 14:40:34;;;;;;;14.32;12.05;;;16.20;99.90;;;;;;4587056;19;20408;-28
2022/10/30 14:42:19;;;;;;;14.07;11.88;;;16.20;99.90;;;;;;4584236;19;20018;-27
2022/10/30 14:43:57;;;;;;;13.63;11.40;;;16.10;99.90;;;;;;4587888;19;20023;-27
2022/10/30 14:45:31;;;;;;;15.98;12.52;;;16.10;99.90;;;;;;4588966;19;20043;-27
2022/10/30 14:47:05;;;;;;;15.52;11.30;;;16.10;99.90;;;;;;4587682;19;20473;-28
2022/10/30 14:48:44;;;;;;;14.38;11.45;;;16.10;99.90;;;;;;4588533;19;20439;-27
2022/10/30 14:50:25;;;;;;;16.50;12.75;;;16.10;99.90;;;;;;4588632;19;20022;-27
2022/10/30 14:52:09;;;;;;;13.90;11.82;;;16.10;99.90;;;;;;4586872;19;20015;-27
2022/10/30 14:55:51;;;;;;;13.77;12.25;;;16.10;99.90;;;;;;4588253;19;20010;-27
2022/10/30 14:57:41;;;;;;;13.88;12.35;;;16.00;99.90;;;;;;4589840;19;20015;-27
2022/10/30 14:59:13;;;;;;;14.50;11.65;;;16.10;99.90;;;;;;4590686;19;20010;-27
2022/10/30 15:00:44;;;;;;;14.55;12.48;;;16.00;99.90;;;;;;4591697;19;20461;-27
2022/10/30 15:02:20;;;;;;;;;;;16.00;99.90;;;;;;4589185;19;20359;-28
2022/10/30 15:04:09;;;;;;;14.95;12.07;;;16.00;99.90;;;;;;4588696;19;20369;-28
2022/10/30 15:05:48;;;;;;;16.00;13.00;;;15.90;99.90;;;;;;4589955;19;20092;-27
2022/10/30 15:07:34;;;;;;;14.65;11.93;;;16.00;99.90;;;;;;4588852;19;20025;-27
2022/10/30 15:09:30;;;;;;;15.73;12.70;;;15.90;99.90;;;;;;4588850;19;20075;-27
2022/10/30 15:11:32;;;;;;;14.70;12.63;;;15.90;99.90;;;;;;4587414;19;20018;-27
2022/10/30 15:13:04;;;;;;;;;;;15.90;99.90;;;;;;4588663;19;20018;-27
2022/10/30 15:15:05;;;;;;;21.77;16.98;;;15.80;99.90;;;;;;4587346;19;19923;-27
2022/10/30 15:16:38;;;;;;;23.40;19.08;;;15.80;99.90;;;;;;4587861;19;20014;-27
2022/10/30 15:18:10;;;;;;;25.67;19.17;;;15.70;99.90;;;;;;4587583;19;20023;-28
2022/10/30 15:19:41;;;;;;;23.20;18.48;;;15.70;99.90;;;;;;4585642;19;20023;-27
2022/10/30 15:21:18;;;;;;;27.65;22.25;;;15.70;99.90;;;;;;4587823;19;20033;-28
2022/10/30 15:22:56;;;;;;;27.42;21.83;;;15.70;99.90;;;;;;4587594;19;20014;-27
2022/10/30 15:24:28;;;;;;;25.17;19.80;;;15.70;99.90;;;;;;4588376;19;20557;-27
2022/10/30 15:26:16;;;;;;;30.83;24.48;;;15.60;99.90;;;;;;4587288;19;20040;-27
2022/10/30 15:27:51;;;;;;;29.55;24.02;;;15.60;99.90;;;;;;4586528;19;20047;-27
2022/10/30 15:29:28;;;;;;;35.10;28.83;;;15.60;99.90;;;;;;4588555;19;20018;-27
2022/10/30 15:31:03;;;;;;;38.92;34.78;;;15.60;99.90;;;;;;4588609;19;20018;-28
2022/10/30 15:32:39;;;;;;;34.90;31.05;;;15.50;99.90;;;;;;4587423;19;20025;-27
2022/10/30 15:34:20;;;;;;;31.90;27.30;;;15.50;99.90;;;;;;4588129;19;20044;-27
2022/10/30 15:35:51;;;;;;;33.63;27.15;;;15.50;99.90;;;;;;4588564;19;20020;-27